Time;durP1;ratioP1;P1;durP2;ratioP2;P2;SDS_P1;SDS_P2;PMS_P1;PMS_P2;Temp;Humidity;BMP_temperature;BMP_pressure;BME280_temperature;BME280_humidity;BME280_pressure;Samples;Min_cycle;Max_cycle;Signal;HPM_P1;HPM_P2
2022/04/17 00:00:55;;;;;;;20.43;13.73;;;3.50;99.90;;;;;;5075186;28;20749;-62
2022/04/17 00:03:24;;;;;;;15.53;11.90;;;3.50;99.90;;;;;;5074988;28;20491;-62
2022/04/17 00:05:51;;;;;;;14.97;13.03;;;3.50;99.90;;;;;;5074901;28;20442;-63
2022/04/17 00:08:16;;;;;;;21.37;11.90;;;3.50;99.90;;;;;;5074885;28;20402;-62
2022/04/17 00:10:44;;;;;;;18.07;11.70;;;3.50;99.90;;;;;;5074037;28;20940;-66
2022/04/17 00:13:10;;;;;;;13.57;10.87;;;3.60;99.90;;;;;;5074774;28;20190;-66
2022/04/17 00:15:36;;;;;;;13.37;10.33;;;3.60;99.90;;;;;;5074766;28;20765;-63
2022/04/17 00:18:01;;;;;;;13.50;11.70;;;3.60;99.90;;;;;;5074634;28;20616;-62
2022/04/17 00:20:27;;;;;;;12.43;11.23;;;3.60;99.90;;;;;;5074041;28;20163;-66
2022/04/17 00:22:52;;;;;;;14.97;11.30;;;3.60;99.90;;;;;;5074492;28;20183;-66
2022/04/17 00:25:18;;;;;;;15.90;11.50;;;3.60;99.90;;;;;;5056857;28;20617;-66
2022/04/17 00:27:44;;;;;;;11.83;10.30;;;3.60;99.90;;;;;;5074501;28;20204;-66
2022/04/17 00:30:10;;;;;;;13.80;11.60;;;3.60;99.90;;;;;;5073773;28;20523;-62
2022/04/17 00:32:37;;;;;;;11.77;10.67;;;3.60;99.90;;;;;;5074362;28;20507;-66
2022/04/17 00:35:04;;;;;;;14.40;11.33;;;3.60;99.90;;;;;;5056659;28;20812;-66
2022/04/17 00:37:30;;;;;;;14.50;11.73;;;3.60;99.90;;;;;;5074069;28;20978;-62
2022/04/17 00:39:56;;;;;;;14.50;11.43;;;3.60;99.90;;;;;;5073522;28;20426;-67
2022/04/17 00:42:21;;;;;;;14.77;10.50;;;3.60;99.90;;;;;;5074052;28;20190;-62
2022/04/17 00:44:47;;;;;;;20.13;12.77;;;3.60;99.90;;;;;;5074243;28;20186;-66
2022/04/17 00:47:15;;;;;;;14.80;11.40;;;3.60;99.90;;;;;;5074225;28;20193;-62
2022/04/17 00:49:45;;;;;;;14.37;11.03;;;3.60;99.90;;;;;;5073343;28;20167;-66
2022/04/17 00:52:14;;;;;;;18.37;11.00;;;3.60;99.90;;;;;;5073729;28;20414;-67
2022/04/17 00:54:46;;;;;;;16.33;11.00;;;3.60;99.90;;;;;;5073885;28;20392;-62
2022/04/17 00:57:15;;;;;;;19.17;12.97;;;3.60;99.90;;;;;;5073898;28;20393;-62
2022/04/17 00:59:42;;;;;;;11.87;10.63;;;3.60;99.90;;;;;;5073210;28;20766;-62
2022/04/17 01:02:11;;;;;;;14.47;11.40;;;3.50;99.90;;;;;;5073187;28;20423;-64
2022/04/17 01:04:39;;;;;;;11.53;9.53;;;3.50;99.90;;;;;;5073623;28;20414;-62
2022/04/17 01:07:05;;;;;;;12.90;10.43;;;3.50;99.90;;;;;;5073963;28;20491;-67
2022/04/17 01:09:32;;;;;;;13.73;11.00;;;3.50;99.90;;;;;;5072974;28;20448;-66
2022/04/17 01:11:58;;;;;;;13.27;10.80;;;3.50;99.90;;;;;;5073648;28;20468;-63
2022/04/17 01:14:27;;;;;;;17.60;13.03;;;3.50;99.90;;;;;;5073631;28;20440;-66
2022/04/17 01:16:53;;;;;;;22.10;14.13;;;3.50;99.90;;;;;;5073655;28;20245;-63
2022/04/17 01:19:19;;;;;;;20.07;13.10;;;3.50;99.90;;;;;;5073028;28;20901;-66
2022/04/17 01:21:49;;;;;;;19.07;13.63;;;3.50;99.90;;;;;;5073483;28;20453;-62
2022/04/17 01:27:02;;;;;;;14.53;10.83;;;3.50;99.90;;;;;;5073864;28;20947;-62
2022/04/17 01:29:31;;;;;;;16.80;12.20;;;3.50;99.90;;;;;;5072835;28;20401;-66
2022/04/17 01:32:01;;;;;;;20.37;10.47;;;3.50;99.90;;;;;;5055368;28;20436;-62
2022/04/17 01:34:26;;;;;;;12.83;10.47;;;3.50;99.90;;;;;;5073236;28;20396;-63
2022/04/17 01:36:53;;;;;;;11.57;10.27;;;3.50;99.90;;;;;;5073314;28;20744;-62
2022/04/17 01:39:19;;;;;;;14.07;9.40;;;3.50;99.90;;;;;;5054609;28;20198;-66
2022/04/17 01:41:48;;;;;;;11.60;10.50;;;3.50;99.90;;;;;;5073317;28;20935;-61
2022/04/17 01:44:18;;;;;;;11.63;9.50;;;3.50;99.90;;;;;;5073183;28;20418;-67
2022/04/17 01:46:44;;;;;;;15.40;10.63;;;3.40;99.90;;;;;;5073133;28;20932;-65
2022/04/17 01:49:11;;;;;;;14.40;10.20;;;3.40;99.90;;;;;;5072692;28;20441;-62
2022/04/17 01:51:39;;;;;;;9.27;8.43;;;3.40;99.90;;;;;;5055189;28;20483;-66
2022/04/17 01:54:06;;;;;;;13.40;11.70;;;3.40;99.90;;;;;;5073334;28;20430;-66
2022/04/17 01:56:32;;;;;;;10.90;9.83;;;3.40;99.90;;;;;;5073055;28;20412;-66
2022/04/17 01:58:58;;;;;;;11.27;10.23;;;3.40;99.90;;;;;;5072421;28;20456;-66
2022/04/17 02:01:23;;;;;;;11.40;9.40;;;3.30;99.90;;;;;;5055138;28;20198;-62
2022/04/17 02:03:49;;;;;;;14.20;10.77;;;3.40;99.90;;;;;;5073331;28;20175;-62
2022/04/17 02:06:14;;;;;;;11.70;10.03;;;3.30;99.90;;;;;;5073317;28;20169;-66
2022/04/17 02:08:40;;;;;;;10.70;9.70;;;3.40;99.90;;;;;;5072497;28;20220;-65
2022/04/17 02:11:06;;;;;;;14.70;11.60;;;3.30;99.90;;;;;;5072899;28;20270;-65
2022/04/17 02:13:34;;;;;;;11.23;9.90;;;3.30;99.90;;;;;;5072936;28;20910;-62
2022/04/17 02:15:59;;;;;;;19.70;10.17;;;3.30;99.90;;;;;;5076409;28;20175;-62
2022/04/17 02:18:25;;;;;;;15.23;10.37;;;3.30;99.90;;;;;;5076954;28;20443;-63
2022/04/17 02:20:53;;;;;;;13.90;10.10;;;3.30;99.90;;;;;;5076351;28;20175;-62
2022/04/17 02:23:18;;;;;;;13.90;11.57;;;3.30;99.90;;;;;;5076787;28;20905;-62
2022/04/17 02:25:44;;;;;;;15.40;10.87;;;3.30;99.90;;;;;;5058850;28;20407;-62
2022/04/17 02:28:10;;;;;;;12.77;11.47;;;3.30;99.90;;;;;;5076744;28;20166;-62
2022/04/17 02:30:36;;;;;;;13.23;11.77;;;3.30;99.90;;;;;;5076057;28;20170;-63
2022/04/17 02:33:03;;;;;;;11.87;10.67;;;3.30;99.90;;;;;;5076473;28;20212;-65
2022/04/17 02:35:28;;;;;;;12.03;10.50;;;3.30;99.90;;;;;;5076704;28;20408;-66
2022/04/17 02:37:54;;;;;;;14.57;11.30;;;3.20;99.90;;;;;;5076587;28;20810;-66
2022/04/17 02:40:20;;;;;;;14.17;11.97;;;3.20;99.90;;;;;;5075808;28;20198;-66
2022/04/17 02:42:45;;;;;;;12.37;11.20;;;3.20;99.90;;;;;;5076270;28;20670;-67
2022/04/17 02:45:11;;;;;;;20.17;11.60;;;3.20;99.90;;;;;;5076384;28;20174;-65
2022/04/17 02:47:43;;;;;;;11.20;10.10;;;3.20;99.90;;;;;;5076569;28;20325;-66
2022/04/17 02:50:16;;;;;;;13.33;11.60;;;3.20;99.90;;;;;;5075682;28;20194;-62
2022/04/17 02:52:42;;;;;;;11.57;10.37;;;3.20;99.90;;;;;;5076692;28;20429;-63
2022/04/17 02:55:09;;;;;;;14.10;11.40;;;3.10;99.90;;;;;;5076126;28;20393;-65
2022/04/17 02:57:34;;;;;;;16.20;13.80;;;3.10;99.90;;;;;;5076298;28;20843;-66
2022/04/17 03:00:01;;;;;;;17.37;13.10;;;3.10;99.90;;;;;;5075631;28;20458;-66
2022/04/17 03:07:55;;;;;;;11.80;10.70;;;3.10;99.90;;;;;;5076065;28;20395;-66
2022/04/17 03:10:21;;;;;;;13.17;11.00;;;3.00;99.90;;;;;;5075310;28;20914;-62
2022/04/17 03:12:48;;;;;;;11.87;10.77;;;3.00;99.90;;;;;;5075969;28;20424;-66
2022/04/17 03:15:13;;;;;;;12.70;11.50;;;3.00;99.90;;;;;;5057866;28;20543;-65
2022/04/17 03:17:39;;;;;;;14.67;11.00;;;3.00;99.90;;;;;;5075947;28;20440;-66
2022/04/17 03:20:06;;;;;;;12.53;10.67;;;3.00;99.90;;;;;;5075381;28;20166;-66
2022/04/17 03:22:32;;;;;;;15.20;9.93;;;2.90;99.90;;;;;;5075495;28;20183;-62
2022/04/17 03:25:00;;;;;;;11.10;10.10;;;2.90;99.90;;;;;;5075285;28;20853;-63
2022/04/17 03:27:26;;;;;;;12.97;10.47;;;2.90;99.90;;;;;;5075786;28;20483;-63
2022/04/17 03:29:52;;;;;;;11.97;10.60;;;2.90;99.90;;;;;;5074993;28;20479;-66
2022/04/17 03:32:18;;;;;;;21.17;13.03;;;2.90;99.90;;;;;;5057567;28;20432;-63
2022/04/17 03:34:43;;;;;;;15.43;11.63;;;2.90;99.90;;;;;;5075706;28;20400;-62
2022/04/17 03:37:10;;;;;;;13.10;9.73;;;2.80;99.90;;;;;;5075449;28;20519;-65
2022/04/17 03:39:35;;;;;;;11.63;10.43;;;2.80;99.90;;;;;;5056817;28;20548;-66
2022/04/17 03:42:01;;;;;;;10.30;9.40;;;2.80;99.90;;;;;;5075361;28;20416;-62
2022/04/17 03:44:27;;;;;;;12.30;10.03;;;2.80;99.90;;;;;;5075431;28;20216;-66
2022/04/17 03:46:52;;;;;;;12.07;10.30;;;2.80;99.90;;;;;;5075364;28;20170;-62
2022/04/17 03:49:18;;;;;;;11.23;10.07;;;2.80;99.90;;;;;;5074460;28;20224;-63
2022/04/17 03:51:44;;;;;;;11.83;10.67;;;2.80;99.90;;;;;;5075092;28;20197;-66
2022/04/17 03:54:10;;;;;;;14.57;9.23;;;2.80;99.90;;;;;;5075524;28;20174;-62
2022/04/17 03:56:36;;;;;;;12.70;10.73;;;2.80;99.90;;;;;;5075301;28;20651;-66
2022/04/17 03:59:02;;;;;;;12.07;10.53;;;2.80;99.90;;;;;;5074394;28;20456;-66
2022/04/17 04:01:28;;;;;;;12.53;10.00;;;2.70;99.90;;;;;;5074821;28;20296;-65
2022/04/17 04:03:54;;;;;;;13.33;10.57;;;2.70;99.90;;;;;;5074940;28;20469;-66
2022/04/17 04:06:21;;;;;;;10.87;9.87;;;2.70;99.90;;;;;;5074924;28;20544;-62
2022/04/17 04:08:48;;;;;;;13.37;10.70;;;2.70;99.90;;;;;;5074219;28;20169;-66
2022/04/17 04:11:14;;;;;;;12.57;10.47;;;2.70;99.90;;;;;;5074768;28;20475;-66
2022/04/17 04:13:42;;;;;;;14.10;10.10;;;2.70;99.90;;;;;;5074751;28;20397;-67
2022/04/17 04:16:07;;;;;;;10.30;9.07;;;2.80;99.90;;;;;;5074804;28;20419;-65
2022/04/17 04:18:33;;;;;;;10.97;9.87;;;2.80;99.90;;;;;;5074083;28;21020;-66
2022/04/17 04:20:59;;;;;;;12.20;9.57;;;2.70;99.90;;;;;;5056768;28;20975;-66
2022/04/17 04:23:25;;;;;;;10.13;9.00;;;2.70;99.90;;;;;;5074633;28;20190;-65
2022/04/17 04:25:50;;;;;;;11.53;10.00;;;2.80;99.90;;;;;;5074605;28;20170;-62
2022/04/17 04:28:36;;;;;;;9.70;8.80;;;2.80;99.90;;;;;;5056635;28;20174;-66
2022/04/17 04:31:13;;;;;;;10.30;9.20;;;2.80;99.90;;;;;;5074586;28;20166;-62
2022/04/17 04:33:40;;;;;;;11.03;8.87;;;2.80;99.90;;;;;;5074306;28;20436;-63
2022/04/17 04:36:11;;;;;;;13.97;10.17;;;2.80;99.90;;;;;;5074283;28;20497;-65
2022/04/17 04:38:38;;;;;;;12.30;10.30;;;2.80;99.90;;;;;;5072836;28;20451;-63
2022/04/17 04:41:04;;;;;;;13.23;9.57;;;2.80;99.90;;;;;;5074164;28;20836;-65
2022/04/17 04:43:30;;;;;;;10.67;9.47;;;2.80;99.90;;;;;;5074086;28;20512;-62
2022/04/17 04:46:09;;;;;;;10.73;9.27;;;2.80;99.90;;;;;;5073758;28;20432;-62
2022/04/17 04:51:25;;;;;;;11.53;9.50;;;2.90;99.90;;;;;;5073876;28;20395;-62
2022/04/17 04:53:51;;;;;;;10.67;9.50;;;3.00;99.90;;;;;;5073860;28;20458;-65
2022/04/17 04:56:17;;;;;;;11.20;9.47;;;3.00;99.90;;;;;;5055996;28;20420;-62
2022/04/17 04:58:44;;;;;;;11.60;10.27;;;3.10;99.90;;;;;;5073124;28;20452;-66
2022/04/17 05:01:09;;;;;;;11.90;10.27;;;3.10;99.90;;;;;;5073836;28;20885;-66
2022/04/17 05:03:35;;;;;;;15.70;10.57;;;3.10;99.90;;;;;;5073966;28;20437;-62
2022/04/17 05:06:02;;;;;;;10.90;9.90;;;3.20;99.90;;;;;;5073726;28;20540;-65
2022/04/17 05:08:27;;;;;;;10.27;9.27;;;3.20;99.90;;;;;;5073850;28;20166;-72
2022/04/17 05:10:53;;;;;;;11.33;9.80;;;3.10;99.90;;;;;;5071974;28;20439;-62
2022/04/17 05:13:19;;;;;;;11.30;9.37;;;3.10;99.90;;;;;;5073496;28;20633;-62
2022/04/17 05:15:44;;;;;;;11.03;9.93;;;3.10;99.90;;;;;;5073706;28;20484;-65
2022/04/17 05:18:10;;;;;;;14.30;11.33;;;3.00;99.90;;;;;;5073545;28;20207;-63
2022/04/17 05:20:36;;;;;;;10.63;9.53;;;3.00;99.90;;;;;;5073015;28;20170;-65
2022/04/17 05:23:19;;;;;;;11.20;10.20;;;3.00;99.90;;;;;;5073433;28;20699;-62
2022/04/17 05:25:47;;;;;;;15.53;10.20;;;3.00;99.90;;;;;;5073520;28;20168;-62
2022/04/17 05:28:13;;;;;;;12.53;9.40;;;3.10;99.90;;;;;;5073410;28;20769;-63
2022/04/17 05:30:39;;;;;;;10.97;9.23;;;3.10;99.90;;;;;;5072866;28;20491;-66
2022/04/17 05:33:05;;;;;;;10.07;9.13;;;3.20;99.90;;;;;;5073387;28;20518;-64
2022/04/17 05:35:31;;;;;;;9.90;9.00;;;3.20;99.90;;;;;;5073479;28;20202;-62
2022/04/17 05:37:56;;;;;;;10.67;9.70;;;3.30;99.90;;;;;;5073397;28;20868;-63
2022/04/17 05:40:22;;;;;;;11.17;10.07;;;3.40;99.90;;;;;;5054879;28;20527;-66
2022/04/17 05:42:48;;;;;;;9.27;8.57;;;3.40;99.90;;;;;;5073210;28;20267;-63
2022/04/17 05:45:13;;;;;;;11.33;10.23;;;3.50;99.90;;;;;;5073169;28;20631;-62
2022/04/17 05:47:39;;;;;;;11.03;10.03;;;3.60;99.90;;;;;;5073374;28;20175;-66
2022/04/17 05:50:06;;;;;;;15.50;9.93;;;3.60;99.90;;;;;;5054257;28;20291;-63
2022/04/17 05:52:31;;;;;;;14.67;11.33;;;3.70;99.90;;;;;;5072980;28;20763;-66
2022/04/17 05:54:57;;;;;;;12.50;10.40;;;3.80;99.90;;;;;;5055135;28;20415;-68
2022/04/17 05:57:24;;;;;;;12.43;9.80;;;3.90;99.90;;;;;;5073226;28;20174;-64
2022/04/17 05:59:49;;;;;;;13.00;9.90;;;4.00;99.90;;;;;;5072591;28;20410;-64
2022/04/17 06:02:15;;;;;;;10.50;9.50;;;4.20;99.90;;;;;;5054926;28;20520;-66
2022/04/17 06:04:41;;;;;;;13.07;9.37;;;4.30;99.90;;;;;;5073015;28;20191;-63
2022/04/17 06:07:08;;;;;;;10.10;9.10;;;4.50;99.90;;;;;;5073236;28;20176;-62
2022/04/17 06:09:37;;;;;;;15.40;10.77;;;4.60;99.90;;;;;;5072543;28;20428;-66
2022/04/17 06:12:03;;;;;;;12.03;9.73;;;4.80;99.90;;;;;;5073098;28;20907;-66
2022/04/17 06:14:29;;;;;;;10.33;9.43;;;4.90;99.90;;;;;;5055028;28;20918;-65
2022/04/17 06:16:54;;;;;;;9.90;9.00;;;5.00;99.90;;;;;;5073074;28;20514;-65
2022/04/17 06:19:20;;;;;;;10.07;8.83;;;5.20;99.90;;;;;;5054393;28;20292;-68
2022/04/17 06:21:46;;;;;;;11.03;10.13;;;5.40;99.90;;;;;;5073093;28;20642;-62
2022/04/17 06:24:12;;;;;;;12.03;8.43;;;5.50;99.90;;;;;;5073038;28;20177;-65
2022/04/17 06:26:38;;;;;;;10.30;9.30;;;5.60;99.90;;;;;;5072770;28;20216;-62
2022/04/17 06:29:07;;;;;;;13.03;10.73;;;5.80;99.90;;;;;;5072001;28;20407;-66
2022/04/17 06:31:33;;;;;;;9.33;8.47;;;5.90;99.90;;;;;;5072662;28;20428;-65
2022/04/17 06:33:58;;;;;;;9.73;8.73;;;6.10;99.90;;;;;;5072920;28;20405;-62
2022/04/17 06:36:24;;;;;;;9.40;7.90;;;6.30;99.90;;;;;;5054767;28;20186;-63
2022/04/17 06:38:50;;;;;;;7.23;6.73;;;6.40;99.90;;;;;;5072210;28;20210;-65
2022/04/17 06:41:15;;;;;;;11.40;7.80;;;6.60;99.90;;;;;;5054754;28;20174;-65
2022/04/17 06:43:41;;;;;;;8.40;7.43;;;6.70;99.90;;;;;;5072833;28;20179;-66
2022/04/17 06:46:07;;;;;;;8.67;7.90;;;6.90;99.90;;;;;;5072734;28;20167;-65
2022/04/17 06:48:32;;;;;;;8.20;7.60;;;7.00;99.90;;;;;;5071995;28;20181;-64
2022/04/17 06:50:58;;;;;;;8.83;7.93;;;7.10;99.90;;;;;;5072635;28;20166;-68
2022/04/17 06:53:23;;;;;;;6.40;5.80;;;7.30;99.90;;;;;;5072587;28;20346;-64
2022/04/17 06:55:49;;;;;;;7.93;7.13;;;7.40;99.90;;;;;;5072630;28;20200;-64
2022/04/17 06:58:17;;;;;;;6.40;5.80;;;7.50;99.90;;;;;;5072586;28;20195;-68
2022/04/17 07:00:43;;;;;;;6.73;6.03;;;7.60;99.90;;;;;;5072926;28;20423;-65
2022/04/17 07:03:08;;;;;;;9.50;7.70;;;7.70;99.90;;;;;;5076005;28;20416;-67
2022/04/17 07:05:34;;;;;;;7.20;6.07;;;7.80;99.90;;;;;;5076412;28;20166;-64
2022/04/17 07:08:02;;;;;;;5.70;5.20;;;8.00;99.90;;;;;;5076290;28;20175;-68
2022/04/17 07:10:29;;;;;;;5.13;4.73;;;8.10;99.90;;;;;;5075291;28;20237;-64
2022/04/17 07:12:55;;;;;;;6.47;5.53;;;8.20;99.90;;;;;;5075949;28;20427;-64
2022/04/17 07:15:21;;;;;;;5.10;4.27;;;8.30;99.90;;;;;;5076006;28;20462;-64
2022/04/17 07:17:48;;;;;;;4.50;4.10;;;8.40;99.90;;;;;;5076021;28;20197;-64
2022/04/17 07:20:15;;;;;;;4.53;4.13;;;8.50;99.90;;;;;;5075199;28;20424;-68
2022/04/17 07:22:41;;;;;;;5.47;4.33;;;8.60;99.90;;;;;;5075866;28;20842;-66
2022/04/17 07:25:07;;;;;;;5.37;4.47;;;8.80;99.90;;;;;;5075783;28;20438;-64
2022/04/17 07:27:38;;;;;;;5.60;5.20;;;8.90;99.90;;;;;;5075804;28;20230;-64
2022/04/17 07:30:08;;;;;;;4.73;4.30;;;9.00;99.90;;;;;;5074980;28;20407;-67
2022/04/17 07:32:34;;;;;;;5.13;3.80;;;9.10;99.90;;;;;;5075540;28;20468;-64
2022/04/17 07:35:00;;;;;;;4.33;4.03;;;9.20;99.90;;;;;;5075589;28;20393;-67
2022/04/17 07:37:27;;;;;;;4.33;4.00;;;9.30;99.90;;;;;;5057434;28;20504;-68
2022/04/17 07:39:52;;;;;;;4.07;3.67;;;9.40;99.90;;;;;;5074670;28;20165;-68
2022/04/17 07:42:20;;;;;;;4.07;3.67;;;9.50;99.90;;;;;;5075448;28;20443;-69
2022/04/17 07:44:47;;;;;;;3.73;3.53;;;9.60;99.90;;;;;;5057529;28;20174;-68
2022/04/17 07:47:13;;;;;;;4.70;4.40;;;9.70;99.90;;;;;;5075259;28;20413;-65
2022/04/17 07:49:38;;;;;;;3.83;3.53;;;9.80;99.90;;;;;;5074834;28;20906;-67
2022/04/17 07:52:04;;;;;;;4.97;4.50;;;9.90;99.90;;;;;;5075264;28;20193;-64
2022/04/17 07:54:30;;;;;;;5.43;3.93;;;10.00;99.90;;;;;;5075303;28;20178;-67
2022/04/17 07:56:56;;;;;;;4.67;4.20;;;10.10;99.90;;;;;;5074089;28;20442;-65
2022/04/17 07:59:22;;;;;;;4.43;4.00;;;10.20;99.90;;;;;;5073059;28;20216;-65
2022/04/17 08:01:48;;;;;;;3.70;3.37;;;10.30;99.90;;;;;;5073739;28;20190;-68
2022/04/17 08:04:14;;;;;;;4.13;3.77;;;10.30;99.90;;;;;;5075112;28;20403;-64
2022/04/17 08:06:39;;;;;;;4.47;4.13;;;10.40;99.90;;;;;;5074975;28;20245;-68
2022/04/17 08:09:05;;;;;;;4.70;4.30;;;10.50;99.90;;;;;;5074088;28;20405;-68
2022/04/17 08:11:30;;;;;;;4.60;4.20;;;10.50;99.90;;;;;;5074203;28;20201;-65
2022/04/17 08:13:56;;;;;;;5.10;4.70;;;10.50;99.90;;;;;;5074613;28;20607;-64
2022/04/17 08:16:22;;;;;;;3.73;3.43;;;10.60;99.90;;;;;;5074975;28;20177;-67
2022/04/17 08:18:47;;;;;;;4.07;3.67;;;10.70;99.90;;;;;;5073973;28;20289;-65
2022/04/17 08:21:13;;;;;;;3.67;3.33;;;10.70;99.90;;;;;;5074660;28;20166;-66
2022/04/17 08:23:39;;;;;;;4.17;3.73;;;10.80;99.90;;;;;;5073526;28;20219;-64
2022/04/17 08:26:05;;;;;;;3.50;3.20;;;10.80;99.90;;;;;;5074671;28;20623;-65
2022/04/17 08:28:31;;;;;;;3.43;3.23;;;10.90;99.50;;;;;;5073950;28;20245;-65
2022/04/17 08:30:57;;;;;;;3.47;2.97;;;10.90;99.00;;;;;;5074518;28;20379;-64
2022/04/17 08:33:29;;;;;;;2.80;2.70;;;11.00;94.90;;;;;;5056457;28;20190;-68
2022/04/17 08:35:57;;;;;;;3.57;2.80;;;11.10;92.40;;;;;;5056351;28;20577;-67
2022/04/17 08:38:23;;;;;;;2.53;2.33;;;11.10;92.40;;;;;;5074197;28;20971;-65
2022/04/17 08:40:50;;;;;;;7.13;3.97;;;11.20;92.50;;;;;;5055823;28;20405;-65
2022/04/17 08:43:21;;;;;;;4.27;3.03;;;11.30;92.50;;;;;;5074031;28;20205;-67
2022/04/17 08:45:50;;;;;;;3.03;2.83;;;11.40;92.50;;;;;;5073890;28;20401;-65
2022/04/17 08:48:16;;;;;;;2.90;2.70;;;11.50;92.60;;;;;;5074120;28;20404;-68
2022/04/17 08:50:42;;;;;;;3.50;3.03;;;11.70;92.70;;;;;;5073424;28;20746;-64
2022/04/17 08:53:09;;;;;;;3.37;3.07;;;11.70;92.50;;;;;;5055750;28;20478;-65
2022/04/17 08:55:35;;;;;;;3.47;3.10;;;11.80;92.70;;;;;;5073890;28;20165;-65
2022/04/17 08:58:01;;;;;;;3.43;3.13;;;11.90;92.70;;;;;;5073741;28;20543;-68
2022/04/17 09:00:26;;;;;;;2.40;2.20;;;12.20;91.30;;;;;;5073267;28;20435;-64
2022/04/17 09:02:52;;;;;;;4.17;2.70;;;12.30;88.90;;;;;;5073697;28;20189;-68
2022/04/17 09:05:20;;;;;;;4.00;3.30;;;12.50;86.00;;;;;;5073881;28;20580;-69
2022/04/17 09:07:49;;;;;;;3.40;3.10;;;12.70;87.80;;;;;;5073603;28;20178;-71
2022/04/17 09:10:31;;;;;;;2.70;2.50;;;12.80;80.80;;;;;;5072891;28;20476;-69
2022/04/17 09:12:59;;;;;;;3.20;3.00;;;13.00;77.30;;;;;;5073734;28;20387;-69
2022/04/17 09:15:36;;;;;;;2.63;2.43;;;13.10;79.00;;;;;;5073840;28;20447;-66
2022/04/17 09:18:06;;;;;;;2.40;2.30;;;13.50;82.00;;;;;;5073474;28;20483;-64
2022/04/17 09:20:32;;;;;;;2.63;2.43;;;13.80;73.70;;;;;;5072952;28;20360;-67
2022/04/17 09:23:19;;;;;;;2.37;2.20;;;13.90;69.00;;;;;;5073180;28;20566;-67
2022/04/17 09:25:47;;;;;;;1.77;1.67;;;14.10;66.90;;;;;;5051519;28;20174;-65
2022/04/17 09:28:14;;;;;;;2.87;2.67;;;14.20;58.80;;;;;;5055789;28;20387;-65
2022/04/17 09:30:45;;;;;;;2.93;2.73;;;14.20;55.80;;;;;;5072883;28;20405;-67
2022/04/17 09:33:17;;;;;;;2.50;2.30;;;14.50;55.70;;;;;;5073361;28;20744;-65
2022/04/17 09:35:55;;;;;;;2.17;2.00;;;15.10;56.10;;;;;;5073414;28;20397;-66
2022/04/17 09:38:27;;;;;;;1.90;1.80;;;15.50;51.50;;;;;;5055144;28;20458;-70
2022/04/17 09:41:02;;;;;;;2.37;2.17;;;16.00;52.00;;;;;;5055391;28;20405;-64
2022/04/17 09:43:33;;;;;;;2.20;1.93;;;16.30;44.20;;;;;;5073096;28;20416;-67
2022/04/17 09:46:21;;;;;;;2.20;2.10;;;16.60;42.30;;;;;;5055275;28;20869;-69
2022/04/17 09:48:46;;;;;;;2.73;2.53;;;17.10;40.10;;;;;;5072630;28;20404;-69
2022/04/17 09:51:38;;;;;;;2.50;2.30;;;17.40;39.00;;;;;;5073138;28;20431;-67
2022/04/17 09:54:06;;;;;;;3.00;1.87;;;17.60;38.20;;;;;;5051337;28;20187;-66
2022/04/17 09:56:41;;;;;;;2.23;2.03;;;17.80;30.40;;;;;;5073135;28;20403;-65
2022/04/17 09:59:18;;;;;;;2.13;1.93;;;17.50;23.30;;;;;;5072496;28;20956;-69
2022/04/17 10:02:23;;;;;;;2.00;1.90;;;17.60;21.60;;;;;;5054796;28;20440;-68
2022/04/17 10:04:49;;;;;;;1.97;1.87;;;17.90;22.30;;;;;;5055452;28;20792;-68
2022/04/17 10:07:19;;;;;;;1.30;1.20;;;18.20;17.90;;;;;;5055400;28;20425;-69
2022/04/17 10:09:46;;;;;;;2.73;1.90;;;18.60;15.00;;;;;;5072301;28;20420;-69
2022/04/17 10:12:19;;;;;;;2.33;2.13;;;18.90;18.30;;;;;;5072896;28;20535;-68
2022/04/17 10:14:55;;;;;;;1.80;1.50;;;19.00;7.70;;;;;;5073026;28;20420;-68
2022/04/17 10:17:22;;;;;;;2.07;1.50;;;19.30;7.10;;;;;;5055369;28;20408;-65
2022/04/17 10:19:51;;;;;;;1.70;1.60;;;19.70;2.30;;;;;;5072425;28;20479;-69
2022/04/17 10:22:20;;;;;;;1.90;1.60;;;19.50;1.00;;;;;;5072840;28;20430;-67
2022/04/17 10:24:54;;;;;;;1.93;1.73;;;19.50;1.00;;;;;;5072887;28;20440;-66
2022/04/17 10:27:43;;;;;;;1.77;1.67;;;19.70;1.00;;;;;;5055230;28;20905;-68
2022/04/17 10:30:14;;;;;;;2.33;2.00;;;19.80;1.00;;;;;;5071827;28;20417;-66
2022/04/17 10:33:08;;;;;;;2.07;1.57;;;20.30;1.00;;;;;;5072864;28;20428;-70
2022/04/17 10:35:55;;;;;;;1.53;1.43;;;20.10;1.00;;;;;;5055854;28;20777;-66
2022/04/17 10:38:31;;;;;;;1.73;1.40;;;20.30;1.00;;;;;;5076345;28;20483;-70
2022/04/17 10:41:05;;;;;;;1.50;1.40;;;19.60;1.00;;;;;;5076616;28;20382;-68
2022/04/17 10:43:50;;;;;;;2.43;2.33;;;19.50;1.00;;;;;;5076476;28;20420;-70
2022/04/17 10:50:12;;;;;;;;;;;;;;;;;;;;;
2022/04/17 10:52:43;;;;;;;2.00;1.30;;;20.80;1.00;;;;;;5034120;28;20438;-68
2022/04/17 10:55:18;;;;;;;1.50;1.27;;;20.90;1.00;;;;;;5068867;28;20416;-65
2022/04/17 10:57:45;;;;;;;1.50;1.40;;;21.40;1.00;;;;;;5076241;28;20947;-66
2022/04/17 11:00:36;;;;;;;3.20;1.50;;;21.60;1.00;;;;;;5075531;28;20827;-69
2022/04/17 11:03:09;;;;;;;1.77;1.20;;;21.50;1.00;;;;;;5075937;28;20417;-66
2022/04/17 11:06:09;;;;;;;1.43;1.30;;;21.40;1.00;;;;;;5076027;28;20401;-70
2022/04/17 11:08:24;;;;;;;2.10;1.83;;;21.60;1.00;;;;;;5074997;28;20447;-66
2022/04/17 11:10:53;;;;;;;1.93;1.40;;;21.90;1.00;;;;;;5075117;28;20503;-69
2022/04/17 11:13:19;;;;;;;1.50;1.40;;;22.10;1.00;;;;;;5075976;28;20455;-69
2022/04/17 11:15:54;;;;;;;1.43;1.33;;;22.30;1.00;;;;;;5075974;28;20424;-66
2022/04/17 11:18:28;;;;;;;1.70;1.50;;;22.50;1.00;;;;;;5075765;28;20940;-70
2022/04/17 11:20:55;;;;;;;1.87;1.70;;;22.40;1.00;;;;;;5075563;28;20397;-67
2022/04/17 11:23:48;;;;;;;3.00;1.20;;;22.60;1.00;;;;;;5075325;28;20505;-66
2022/04/17 11:26:18;;;;;;;3.50;1.50;;;22.60;1.00;;;;;;5057531;28;20412;-70
2022/04/17 11:28:59;;;;;;;1.50;1.40;;;22.40;1.00;;;;;;5074771;28;20428;-66
2022/04/17 11:31:31;;;;;;;1.50;1.40;;;22.20;1.00;;;;;;5075299;28;20405;-70
2022/04/17 11:34:00;;;;;;;1.50;1.27;;;22.20;1.00;;;;;;5075364;28;20388;-66
2022/04/17 11:36:26;;;;;;;1.63;1.20;;;22.40;1.00;;;;;;5075394;28;20454;-70
2022/04/17 11:38:52;;;;;;;1.60;1.50;;;22.70;1.00;;;;;;5074593;28;20869;-70
2022/04/17 11:41:23;;;;;;;1.50;1.13;;;22.30;1.00;;;;;;5075295;28;20256;-66
2022/04/17 11:43:59;;;;;;;2.27;1.57;;;22.40;1.00;;;;;;5075519;28;20412;-69
2022/04/17 11:46:25;;;;;;;2.07;1.97;;;23.10;1.00;;;;;;5075131;28;20429;-65
2022/04/17 11:48:53;;;;;;;1.20;1.10;;;23.90;1.00;;;;;;5056312;28;20521;-66
2022/04/17 11:51:22;;;;;;;2.70;1.20;;;24.70;1.00;;;;;;5075172;28;20420;-70
2022/04/17 11:53:48;;;;;;;1.33;1.23;;;24.80;1.00;;;;;;5075126;28;20404;-70
2022/04/17 11:56:14;;;;;;;1.97;1.20;;;25.10;1.00;;;;;;5075077;28;20416;-69
2022/04/17 11:58:40;;;;;;;2.40;1.40;;;25.70;1.00;;;;;;5074180;28;20202;-69
2022/04/17 12:01:07;;;;;;;1.50;1.37;;;25.40;1.00;;;;;;5074932;28;20245;-66
2022/04/17 12:03:38;;;;;;;2.53;1.30;;;25.50;1.00;;;;;;5074725;28;20182;-66
2022/04/17 12:06:06;;;;;;;1.50;1.13;;;25.70;1.00;;;;;;5074834;28;20475;-70
2022/04/17 12:08:36;;;;;;;1.33;1.10;;;25.70;1.00;;;;;;5073829;28;20404;-71
2022/04/17 12:11:06;;;;;;;1.30;1.03;;;25.30;1.00;;;;;;5074245;28;20451;-66
2022/04/17 12:13:32;;;;;;;2.23;1.30;;;24.10;1.00;;;;;;5074345;28;20562;-70
2022/04/17 12:16:06;;;;;;;2.50;1.50;;;23.40;1.00;;;;;;5056989;28;20420;-66
2022/04/17 12:18:32;;;;;;;2.33;1.37;;;22.80;1.00;;;;;;5074165;28;20436;-66
2022/04/17 12:21:03;;;;;;;1.77;1.23;;;22.90;1.00;;;;;;5074839;28;20428;-69
2022/04/17 12:23:32;;;;;;;2.17;1.30;;;22.80;1.00;;;;;;5074470;28;20446;-69
2022/04/17 12:25:59;;;;;;;1.30;1.20;;;22.40;1.00;;;;;;5074553;28;20400;-66
2022/04/17 12:28:26;;;;;;;2.20;2.00;;;22.00;1.00;;;;;;5074252;28;20389;-70
2022/04/17 12:30:52;;;;;;;1.73;1.00;;;21.60;1.00;;;;;;5073772;28;20753;-70
2022/04/17 12:33:26;;;;;;;1.47;1.37;;;21.30;1.00;;;;;;5056166;28;20454;-67
2022/04/17 12:36:07;;;;;;;1.20;1.03;;;21.00;1.00;;;;;;5074336;28;20401;-69
2022/04/17 12:38:38;;;;;;;2.80;1.40;;;20.80;1.00;;;;;;5073308;28;20452;-71
2022/04/17 12:41:22;;;;;;;1.60;1.40;;;20.60;1.00;;;;;;5074101;28;20401;-67
2022/04/17 12:43:50;;;;;;;1.70;1.60;;;20.40;1.00;;;;;;5040208;28;20405;-69
2022/04/17 12:46:29;;;;;;;1.57;1.30;;;20.40;1.00;;;;;;5039305;28;20409;-67
2022/04/17 12:49:19;;;;;;;1.50;1.30;;;20.60;1.00;;;;;;5073643;28;20415;-67
2022/04/17 12:51:56;;;;;;;3.63;1.47;;;20.80;1.00;;;;;;5073923;28;20443;-68
2022/04/17 12:54:28;;;;;;;1.40;1.30;;;21.60;1.00;;;;;;5074016;28;20419;-68
2022/04/17 12:57:11;;;;;;;1.60;1.40;;;22.50;1.00;;;;;;5073844;28;20972;-67
2022/04/17 12:59:45;;;;;;;7.43;1.60;;;23.40;1.00;;;;;;5072433;28;20447;-68
2022/04/17 13:02:13;;;;;;;1.63;1.47;;;24.50;1.00;;;;;;5074063;28;20490;-68
2022/04/17 13:04:51;;;;;;;2.53;1.60;;;24.30;1.00;;;;;;5073810;28;20443;-66
2022/04/17 13:07:17;;;;;;;2.30;1.63;;;24.60;1.00;;;;;;5073708;28;20408;-69
2022/04/17 13:10:04;;;;;;;2.07;1.60;;;25.40;1.00;;;;;;5072962;28;20428;-68